sensor_id;sensor_type;location;lat;lon;timestamp;temperature;humidity
48860;DHT22;34679;51.436;-2.518;2023-01-31T00:01:08;5.80;99.90
48860;DHT22;34679;51.436;-2.518;2023-01-31T00:03:34;5.90;99.90
48860;DHT22;34679;51.436;-2.518;2023-01-31T00:06:30;6.00;99.90
48860;DHT22;34679;51.436;-2.518;2023-01-31T00:08:57;6.00;99.90
48860;DHT22;34679;51.436;-2.518;2023-01-31T00:11:24;6.00;99.90
48860;DHT22;34679;51.436;-2.518;2023-01-31T00:13:50;6.00;99.90
48860;DHT22;34679;51.436;-2.518;2023-01-31T00:16:17;6.00;99.90
48860;DHT22;34679;51.436;-2.518;2023-01-31T00:18:44;6.00;99.90
48860;DHT22;34679;51.436;-2.518;2023-01-31T00:21:16;6.10;99.90
48860;DHT22;34679;51.436;-2.518;2023-01-31T00:23:43;6.10;99.90
48860;DHT22;34679;51.436;-2.518;2023-01-31T00:28:46;6.10;99.90
48860;DHT22;34679;51.436;-2.518;2023-01-31T00:31:13;6.10;99.90
48860;DHT22;34679;51.436;-2.518;2023-01-31T00:33:41;6.10;99.90
48860;DHT22;34679;51.436;-2.518;2023-01-31T00:36:10;6.20;99.90
48860;DHT22;34679;51.436;-2.518;2023-01-31T00:38:36;6.20;99.90
48860;DHT22;34679;51.436;-2.518;2023-01-31T00:41:03;6.30;99.90
48860;DHT22;34679;51.436;-2.518;2023-01-31T00:43:31;6.30;99.90
48860;DHT22;34679;51.436;-2.518;2023-01-31T00:45:58;6.30;99.90
48860;DHT22;34679;51.436;-2.518;2023-01-31T00:48:24;6.40;99.90
48860;DHT22;34679;51.436;-2.518;2023-01-31T00:50:50;6.40;99.90
48860;DHT22;34679;51.436;-2.518;2023-01-31T00:53:16;6.40;99.90
48860;DHT22;34679;51.436;-2.518;2023-01-31T00:55:47;6.40;99.90
48860;DHT22;34679;51.436;-2.518;2023-01-31T00:58:13;6.40;99.90
48860;DHT22;34679;51.436;-2.518;2023-01-31T01:00:39;6.40;99.90
48860;DHT22;34679;51.436;-2.518;2023-01-31T01:03:04;6.40;99.90
48860;DHT22;34679;51.436;-2.518;2023-01-31T01:05:30;6.40;99.90
48860;DHT22;34679;51.436;-2.518;2023-01-31T01:07:56;6.40;99.90
48860;DHT22;34679;51.436;-2.518;2023-01-31T01:10:22;6.40;99.90
48860;DHT22;34679;51.436;-2.518;2023-01-31T01:12:47;6.40;99.90
48860;DHT22;34679;51.436;-2.518;2023-01-31T01:15:13;6.40;99.90
48860;DHT22;34679;51.436;-2.518;2023-01-31T01:17:39;6.40;99.90
48860;DHT22;34679;51.436;-2.518;2023-01-31T01:20:05;6.30;99.90
48860;DHT22;34679;51.436;-2.518;2023-01-31T01:22:33;6.40;99.90
48860;DHT22;34679;51.436;-2.518;2023-01-31T01:24:59;6.40;99.90
48860;DHT22;34679;51.436;-2.518;2023-01-31T01:27:25;6.40;99.90
48860;DHT22;34679;51.436;-2.518;2023-01-31T01:29:51;6.30;99.90
48860;DHT22;34679;51.436;-2.518;2023-01-31T01:32:17;6.40;99.90
48860;DHT22;34679;51.436;-2.518;2023-01-31T01:34:43;6.40;99.90
48860;DHT22;34679;51.436;-2.518;2023-01-31T01:37:09;6.40;99.90
48860;DHT22;34679;51.436;-2.518;2023-01-31T01:39:39;6.50;99.90
48860;DHT22;34679;51.436;-2.518;2023-01-31T01:42:05;6.40;99.90
48860;DHT22;34679;51.436;-2.518;2023-01-31T01:44:50;6.50;99.90
48860;DHT22;34679;51.436;-2.518;2023-01-31T01:50:01;6.60;99.90
48860;DHT22;34679;51.436;-2.518;2023-01-31T01:52:28;6.60;99.90
48860;DHT22;34679;51.436;-2.518;2023-01-31T01:55:46;6.60;99.90
48860;DHT22;34679;51.436;-2.518;2023-01-31T01:57:49;6.70;99.90
48860;DHT22;34679;51.436;-2.518;2023-01-31T02:00:21;6.70;99.90
48860;DHT22;34679;51.436;-2.518;2023-01-31T02:02:50;6.70;99.90
48860;DHT22;34679;51.436;-2.518;2023-01-31T02:05:21;6.70;99.90
48860;DHT22;34679;51.436;-2.518;2023-01-31T02:07:48;6.70;99.90
48860;DHT22;34679;51.436;-2.518;2023-01-31T02:10:25;6.70;99.90
48860;DHT22;34679;51.436;-2.518;2023-01-31T02:12:52;6.70;99.90
48860;DHT22;34679;51.436;-2.518;2023-01-31T02:15:18;6.70;99.90
48860;DHT22;34679;51.436;-2.518;2023-01-31T02:17:44;6.70;99.90
48860;DHT22;34679;51.436;-2.518;2023-01-31T02:31:24;6.80;99.90
48860;DHT22;34679;51.436;-2.518;2023-01-31T02:34:07;6.70;99.90
48860;DHT22;34679;51.436;-2.518;2023-01-31T02:50:26;6.80;99.90
48860;DHT22;34679;51.436;-2.518;2023-01-31T02:53:11;6.80;99.90
48860;DHT22;34679;51.436;-2.518;2023-01-31T02:59:14;6.80;99.90
48860;DHT22;34679;51.436;-2.518;2023-01-31T03:01:50;6.80;99.90
48860;DHT22;34679;51.436;-2.518;2023-01-31T03:04:19;6.70;99.90
48860;DHT22;34679;51.436;-2.518;2023-01-31T03:09:39;6.70;99.90
48860;DHT22;34679;51.436;-2.518;2023-01-31T03:12:22;6.70;99.90
48860;DHT22;34679;51.436;-2.518;2023-01-31T03:20:40;6.70;99.90
48860;DHT22;34679;51.436;-2.518;2023-01-31T03:23:20;6.60;99.90
48860;DHT22;34679;51.436;-2.518;2023-01-31T03:25:48;6.60;99.90
48860;DHT22;34679;51.436;-2.518;2023-01-31T03:28:18;6.60;99.90
48860;DHT22;34679;51.436;-2.518;2023-01-31T03:33:47;6.60;99.90
48860;DHT22;34679;51.436;-2.518;2023-01-31T03:36:23;6.60;99.90
48860;DHT22;34679;51.436;-2.518;2023-01-31T03:42:04;6.70;99.90
48860;DHT22;34679;51.436;-2.518;2023-01-31T03:44:54;6.80;99.90
48860;DHT22;34679;51.436;-2.518;2023-01-31T03:47:29;6.80;99.90
48860;DHT22;34679;51.436;-2.518;2023-01-31T03:49:59;6.90;99.90
48860;DHT22;34679;51.436;-2.518;2023-01-31T03:52:30;6.80;99.90
48860;DHT22;34679;51.436;-2.518;2023-01-31T03:55:05;6.90;99.90
48860;DHT22;34679;51.436;-2.518;2023-01-31T03:57:34;6.90;99.90
48860;DHT22;34679;51.436;-2.518;2023-01-31T04:00:04;6.80;99.90
48860;DHT22;34679;51.436;-2.518;2023-01-31T04:02:34;6.80;99.90
48860;DHT22;34679;51.436;-2.518;2023-01-31T04:05:12;6.90;99.90
48860;DHT22;34679;51.436;-2.518;2023-01-31T04:07:40;6.90;99.90
48860;DHT22;34679;51.436;-2.518;2023-01-31T04:10:10;7.00;99.90
48860;DHT22;34679;51.436;-2.518;2023-01-31T04:12:37;7.00;99.90
48860;DHT22;34679;51.436;-2.518;2023-01-31T04:15:04;7.00;99.90
48860;DHT22;34679;51.436;-2.518;2023-01-31T04:17:29;7.10;99.90
48860;DHT22;34679;51.436;-2.518;2023-01-31T04:19:55;7.10;99.90
48860;DHT22;34679;51.436;-2.518;2023-01-31T04:22:21;7.00;99.90
48860;DHT22;34679;51.436;-2.518;2023-01-31T04:24:46;7.10;99.90
48860;DHT22;34679;51.436;-2.518;2023-01-31T04:27:12;7.10;99.90
48860;DHT22;34679;51.436;-2.518;2023-01-31T04:29:38;7.20;99.90
48860;DHT22;34679;51.436;-2.518;2023-01-31T04:32:04;7.20;99.90
48860;DHT22;34679;51.436;-2.518;2023-01-31T04:34:29;7.20;99.90
48860;DHT22;34679;51.436;-2.518;2023-01-31T04:36:55;7.30;99.90
48860;DHT22;34679;51.436;-2.518;2023-01-31T04:39:21;7.30;99.90
48860;DHT22;34679;51.436;-2.518;2023-01-31T04:41:47;7.30;99.90
48860;DHT22;34679;51.436;-2.518;2023-01-31T04:44:13;7.30;99.90
48860;DHT22;34679;51.436;-2.518;2023-01-31T04:46:38;7.40;99.90
48860;DHT22;34679;51.436;-2.518;2023-01-31T04:49:04;7.40;99.90
48860;DHT22;34679;51.436;-2.518;2023-01-31T04:51:30;7.40;99.90
48860;DHT22;34679;51.436;-2.518;2023-01-31T04:53:55;7.40;99.90
48860;DHT22;34679;51.436;-2.518;2023-01-31T04:56:21;7.50;99.90
48860;DHT22;34679;51.436;-2.518;2023-01-31T04:58:47;7.50;99.90
48860;DHT22;34679;51.436;-2.518;2023-01-31T05:01:13;7.50;99.90
48860;DHT22;34679;51.436;-2.518;2023-01-31T05:03:39;7.50;99.90
48860;DHT22;34679;51.436;-2.518;2023-01-31T05:06:05;7.50;99.90
48860;DHT22;34679;51.436;-2.518;2023-01-31T05:08:30;7.50;99.90
48860;DHT22;34679;51.436;-2.518;2023-01-31T05:11:00;7.60;99.90
48860;DHT22;34679;51.436;-2.518;2023-01-31T05:13:27;7.50;99.90
48860;DHT22;34679;51.436;-2.518;2023-01-31T05:15:54;7.50;99.90
48860;DHT22;34679;51.436;-2.518;2023-01-31T05:18:23;7.60;99.90
48860;DHT22;34679;51.436;-2.518;2023-01-31T05:20:48;7.60;99.90
48860;DHT22;34679;51.436;-2.518;2023-01-31T05:23:18;7.60;99.90
48860;DHT22;34679;51.436;-2.518;2023-01-31T05:25:44;7.60;99.90
48860;DHT22;34679;51.436;-2.518;2023-01-31T05:28:13;7.70;99.90
48860;DHT22;34679;51.436;-2.518;2023-01-31T05:30:38;7.70;99.90
48860;DHT22;34679;51.436;-2.518;2023-01-31T05:33:04;7.80;99.90
48860;DHT22;34679;51.436;-2.518;2023-01-31T05:35:30;7.90;99.90
48860;DHT22;34679;51.436;-2.518;2023-01-31T05:37:55;7.90;99.90
48860;DHT22;34679;51.436;-2.518;2023-01-31T05:40:23;7.90;99.90
48860;DHT22;34679;51.436;-2.518;2023-01-31T05:42:56;7.90;99.90
48860;DHT22;34679;51.436;-2.518;2023-01-31T05:45:22;8.00;99.90
48860;DHT22;34679;51.436;-2.518;2023-01-31T05:47:48;8.00;99.90
48860;DHT22;34679;51.436;-2.518;2023-01-31T05:50:14;8.10;99.90
48860;DHT22;34679;51.436;-2.518;2023-01-31T05:52:39;8.10;99.90
48860;DHT22;34679;51.436;-2.518;2023-01-31T05:55:05;8.10;99.90
48860;DHT22;34679;51.436;-2.518;2023-01-31T05:57:31;8.10;99.90
48860;DHT22;34679;51.436;-2.518;2023-01-31T05:59:58;8.20;99.90
48860;DHT22;34679;51.436;-2.518;2023-01-31T06:02:24;8.20;99.90
48860;DHT22;34679;51.436;-2.518;2023-01-31T06:04:50;8.20;99.90
48860;DHT22;34679;51.436;-2.518;2023-01-31T06:07:15;8.30;99.90
48860;DHT22;34679;51.436;-2.518;2023-01-31T06:09:41;8.30;99.90
48860;DHT22;34679;51.436;-2.518;2023-01-31T06:12:12;8.40;99.90
48860;DHT22;34679;51.436;-2.518;2023-01-31T06:14:39;8.50;99.90
48860;DHT22;34679;51.436;-2.518;2023-01-31T06:17:04;8.50;99.90
48860;DHT22;34679;51.436;-2.518;2023-01-31T06:19:30;8.50;99.90
48860;DHT22;34679;51.436;-2.518;2023-01-31T06:21:56;8.50;99.90
48860;DHT22;34679;51.436;-2.518;2023-01-31T06:24:21;8.60;99.90
48860;DHT22;34679;51.436;-2.518;2023-01-31T06:26:47;8.60;99.90
48860;DHT22;34679;51.436;-2.518;2023-01-31T06:29:13;8.60;99.90
48860;DHT22;34679;51.436;-2.518;2023-01-31T06:31:38;8.60;99.90
48860;DHT22;34679;51.436;-2.518;2023-01-31T06:34:07;8.70;99.90
48860;DHT22;34679;51.436;-2.518;2023-01-31T06:36:33;8.70;99.90
48860;DHT22;34679;51.436;-2.518;2023-01-31T06:38:58;8.70;99.90
48860;DHT22;34679;51.436;-2.518;2023-01-31T06:41:24;8.80;99.90
48860;DHT22;34679;51.436;-2.518;2023-01-31T06:43:50;8.80;99.90
48860;DHT22;34679;51.436;-2.518;2023-01-31T06:46:16;8.80;99.90
48860;DHT22;34679;51.436;-2.518;2023-01-31T06:48:42;8.80;99.90
48860;DHT22;34679;51.436;-2.518;2023-01-31T06:51:08;8.80;99.90
48860;DHT22;34679;51.436;-2.518;2023-01-31T06:53:34;8.90;99.90
48860;DHT22;34679;51.436;-2.518;2023-01-31T06:56:00;8.90;99.90
48860;DHT22;34679;51.436;-2.518;2023-01-31T06:58:26;8.90;99.90
48860;DHT22;34679;51.436;-2.518;2023-01-31T07:00:52;9.00;99.90
48860;DHT22;34679;51.436;-2.518;2023-01-31T07:03:18;8.90;99.90
48860;DHT22;34679;51.436;-2.518;2023-01-31T07:05:45;9.00;99.90
48860;DHT22;34679;51.436;-2.518;2023-01-31T07:08:11;8.90;99.90
48860;DHT22;34679;51.436;-2.518;2023-01-31T07:10:36;9.00;99.90
48860;DHT22;34679;51.436;-2.518;2023-01-31T07:13:02;9.00;99.90
48860;DHT22;34679;51.436;-2.518;2023-01-31T07:15:28;9.00;99.90
48860;DHT22;34679;51.436;-2.518;2023-01-31T07:18:00;9.00;99.90
48860;DHT22;34679;51.436;-2.518;2023-01-31T07:20:26;9.00;99.90
48860;DHT22;34679;51.436;-2.518;2023-01-31T07:22:55;8.90;99.90
48860;DHT22;34679;51.436;-2.518;2023-01-31T07:25:21;8.90;99.90
48860;DHT22;34679;51.436;-2.518;2023-01-31T07:27:47;8.90;99.90
48860;DHT22;34679;51.436;-2.518;2023-01-31T07:30:13;9.00;99.90
48860;DHT22;34679;51.436;-2.518;2023-01-31T07:32:38;8.90;99.90
48860;DHT22;34679;51.436;-2.518;2023-01-31T07:35:05;9.00;99.90
48860;DHT22;34679;51.436;-2.518;2023-01-31T07:37:30;9.00;99.90
48860;DHT22;34679;51.436;-2.518;2023-01-31T07:39:56;9.00;99.90
48860;DHT22;34679;51.436;-2.518;2023-01-31T07:42:22;8.90;99.90
48860;DHT22;34679;51.436;-2.518;2023-01-31T07:44:47;8.90;99.90
48860;DHT22;34679;51.436;-2.518;2023-01-31T07:47:13;9.00;99.90
48860;DHT22;34679;51.436;-2.518;2023-01-31T07:49:39;8.90;99.90
48860;DHT22;34679;51.436;-2.518;2023-01-31T07:52:04;9.00;99.90
48860;DHT22;34679;51.436;-2.518;2023-01-31T07:54:30;9.00;99.90
48860;DHT22;34679;51.436;-2.518;2023-01-31T07:56:55;9.00;99.90
48860;DHT22;34679;51.436;-2.518;2023-01-31T07:59:21;9.10;99.90
48860;DHT22;34679;51.436;-2.518;2023-01-31T08:01:47;9.00;99.90
48860;DHT22;34679;51.436;-2.518;2023-01-31T08:04:33;9.00;99.90
48860;DHT22;34679;51.436;-2.518;2023-01-31T08:06:59;9.10;99.90
48860;DHT22;34679;51.436;-2.518;2023-01-31T08:09:27;9.10;99.90
48860;DHT22;34679;51.436;-2.518;2023-01-31T08:11:53;9.10;99.90
48860;DHT22;34679;51.436;-2.518;2023-01-31T08:14:19;9.20;99.90
48860;DHT22;34679;51.436;-2.518;2023-01-31T08:16:50;9.20;99.90
48860;DHT22;34679;51.436;-2.518;2023-01-31T08:19:16;9.20;99.90
48860;DHT22;34679;51.436;-2.518;2023-01-31T08:21:42;9.20;99.90
48860;DHT22;34679;51.436;-2.518;2023-01-31T08:24:08;9.20;99.90
48860;DHT22;34679;51.436;-2.518;2023-01-31T08:26:34;9.20;99.90
48860;DHT22;34679;51.436;-2.518;2023-01-31T08:29:00;9.20;99.90
48860;DHT22;34679;51.436;-2.518;2023-01-31T08:31:27;9.20;99.90
48860;DHT22;34679;51.436;-2.518;2023-01-31T08:33:54;9.20;99.90
48860;DHT22;34679;51.436;-2.518;2023-01-31T08:36:22;9.20;99.90
48860;DHT22;34679;51.436;-2.518;2023-01-31T08:38:49;9.20;99.90
48860;DHT22;34679;51.436;-2.518;2023-01-31T08:41:16;9.30;99.90
48860;DHT22;34679;51.436;-2.518;2023-01-31T08:43:43;9.30;99.90
48860;DHT22;34679;51.436;-2.518;2023-01-31T08:46:08;9.30;99.90
48860;DHT22;34679;51.436;-2.518;2023-01-31T08:48:36;9.30;99.90
48860;DHT22;34679;51.436;-2.518;2023-01-31T08:51:02;9.30;99.90
48860;DHT22;34679;51.436;-2.518;2023-01-31T08:53:30;9.30;99.90
48860;DHT22;34679;51.436;-2.518;2023-01-31T08:56:03;9.30;99.90
48860;DHT22;34679;51.436;-2.518;2023-01-31T08:58:35;9.20;99.90
48860;DHT22;34679;51.436;-2.518;2023-01-31T09:01:06;9.30;99.90
48860;DHT22;34679;51.436;-2.518;2023-01-31T09:03:32;9.30;99.90
48860;DHT22;34679;51.436;-2.518;2023-01-31T09:05:59;9.30;99.90
48860;DHT22;34679;51.436;-2.518;2023-01-31T09:08:24;9.40;99.90
48860;DHT22;34679;51.436;-2.518;2023-01-31T09:10:54;9.40;99.90
48860;DHT22;34679;51.436;-2.518;2023-01-31T09:13:21;9.40;99.90
48860;DHT22;34679;51.436;-2.518;2023-01-31T09:15:56;9.40;99.90
48860;DHT22;34679;51.436;-2.518;2023-01-31T09:18:21;9.40;99.90
48860;DHT22;34679;51.436;-2.518;2023-01-31T09:20:47;9.40;99.90
48860;DHT22;34679;51.436;-2.518;2023-01-31T09:23:13;9.50;99.90
48860;DHT22;34679;51.436;-2.518;2023-01-31T09:25:38;9.40;99.90
48860;DHT22;34679;51.436;-2.518;2023-01-31T09:28:04;9.50;99.90
48860;DHT22;34679;51.436;-2.518;2023-01-31T09:30:30;9.40;99.90
48860;DHT22;34679;51.436;-2.518;2023-01-31T09:32:55;9.40;99.90
48860;DHT22;34679;51.436;-2.518;2023-01-31T09:35:21;9.40;99.90
48860;DHT22;34679;51.436;-2.518;2023-01-31T09:37:47;9.40;99.90
48860;DHT22;34679;51.436;-2.518;2023-01-31T09:40:20;9.40;99.90
48860;DHT22;34679;51.436;-2.518;2023-01-31T09:42:48;9.50;99.90
48860;DHT22;34679;51.436;-2.518;2023-01-31T09:45:33;9.50;99.90
48860;DHT22;34679;51.436;-2.518;2023-01-31T09:48:01;9.60;99.90
48860;DHT22;34679;51.436;-2.518;2023-01-31T09:50:42;9.60;99.90
48860;DHT22;34679;51.436;-2.518;2023-01-31T09:53:12;9.80;99.90
48860;DHT22;34679;51.436;-2.518;2023-01-31T09:58:46;9.90;99.90
48860;DHT22;34679;51.436;-2.518;2023-01-31T10:01:22;10.10;99.90
48860;DHT22;34679;51.436;-2.518;2023-01-31T10:09:19;10.30;99.90
48860;DHT22;34679;51.436;-2.518;2023-01-31T10:12:11;10.40;99.90
48860;DHT22;34679;51.436;-2.518;2023-01-31T10:14:57;10.40;99.90
48860;DHT22;34679;51.436;-2.518;2023-01-31T10:17:30;10.40;99.90
48860;DHT22;34679;51.436;-2.518;2023-01-31T10:22:48;10.60;99.90
48860;DHT22;34679;51.436;-2.518;2023-01-31T10:25:43;10.60;99.90
48860;DHT22;34679;51.436;-2.518;2023-01-31T10:28:15;10.70;99.90
48860;DHT22;34679;51.436;-2.518;2023-01-31T10:30:58;10.80;99.90
48860;DHT22;34679;51.436;-2.518;2023-01-31T10:33:50;10.80;99.90
48860;DHT22;34679;51.436;-2.518;2023-01-31T10:44:23;10.70;99.90
48860;DHT22;34679;51.436;-2.518;2023-01-31T10:46:52;10.80;99.90
48860;DHT22;34679;51.436;-2.518;2023-01-31T10:49:23;10.90;99.90
48860;DHT22;34679;51.436;-2.518;2023-01-31T10:52:37;10.90;99.90
48860;DHT22;34679;51.436;-2.518;2023-01-31T10:57:52;11.00;99.90
48860;DHT22;34679;51.436;-2.518;2023-01-31T11:00:22;11.00;99.90
48860;DHT22;34679;51.436;-2.518;2023-01-31T11:02:48;11.10;99.90
48860;DHT22;34679;51.436;-2.518;2023-01-31T11:05:22;11.00;99.90
48860;DHT22;34679;51.436;-2.518;2023-01-31T11:07:48;10.90;99.90
48860;DHT22;34679;51.436;-2.518;2023-01-31T11:10:33;10.90;99.90
48860;DHT22;34679;51.436;-2.518;2023-01-31T11:13:17;10.80;99.90
48860;DHT22;34679;51.436;-2.518;2023-01-31T11:15:43;10.80;99.90
48860;DHT22;34679;51.436;-2.518;2023-01-31T11:20:53;10.90;99.90
48860;DHT22;34679;51.436;-2.518;2023-01-31T11:23:24;10.80;99.90
48860;DHT22;34679;51.436;-2.518;2023-01-31T11:25:52;10.90;99.90
48860;DHT22;34679;51.436;-2.518;2023-01-31T11:28:36;10.80;99.90
48860;DHT22;34679;51.436;-2.518;2023-01-31T11:31:05;10.80;99.90
48860;DHT22;34679;51.436;-2.518;2023-01-31T11:36:11;10.90;99.90
48860;DHT22;34679;51.436;-2.518;2023-01-31T11:38:37;11.00;99.90
48860;DHT22;34679;51.436;-2.518;2023-01-31T11:46:31;10.90;99.90
48860;DHT22;34679;51.436;-2.518;2023-01-31T11:48:57;10.80;99.90
48860;DHT22;34679;51.436;-2.518;2023-01-31T11:51:29;10.80;99.90
48860;DHT22;34679;51.436;-2.518;2023-01-31T11:53:56;10.90;99.90
48860;DHT22;34679;51.436;-2.518;2023-01-31T11:56:25;11.00;99.90
48860;DHT22;34679;51.436;-2.518;2023-01-31T11:58:54;11.20;99.90
48860;DHT22;34679;51.436;-2.518;2023-01-31T12:01:23;11.10;99.90
48860;DHT22;34679;51.436;-2.518;2023-01-31T12:03:56;11.10;99.90
48860;DHT22;34679;51.436;-2.518;2023-01-31T12:08:57;11.20;99.90
48860;DHT22;34679;51.436;-2.518;2023-01-31T12:11:34;11.20;99.90
48860;DHT22;34679;51.436;-2.518;2023-01-31T12:14:13;11.40;99.90
48860;DHT22;34679;51.436;-2.518;2023-01-31T12:16:41;11.40;99.90
48860;DHT22;34679;51.436;-2.518;2023-01-31T12:24:34;11.40;99.90
48860;DHT22;34679;51.436;-2.518;2023-01-31T12:44:38;11.20;99.90
48860;DHT22;34679;51.436;-2.518;2023-01-31T12:54:41;11.30;99.90
48860;DHT22;34679;51.436;-2.518;2023-01-31T13:02:37;11.20;99.90
48860;DHT22;34679;51.436;-2.518;2023-01-31T13:05:17;11.10;99.90
48860;DHT22;34679;51.436;-2.518;2023-01-31T13:07:53;11.20;99.90
48860;DHT22;34679;51.436;-2.518;2023-01-31T13:10:44;11.30;99.90
48860;DHT22;34679;51.436;-2.518;2023-01-31T13:13:23;11.40;99.90
48860;DHT22;34679;51.436;-2.518;2023-01-31T13:16:12;11.60;99.90
48860;DHT22;34679;51.436;-2.518;2023-01-31T13:18:42;11.70;99.90
48860;DHT22;34679;51.436;-2.518;2023-01-31T13:21:17;11.70;99.90
48860;DHT22;34679;51.436;-2.518;2023-01-31T13:23:48;11.70;99.90
48860;DHT22;34679;51.436;-2.518;2023-01-31T13:26:18;11.70;99.90
48860;DHT22;34679;51.436;-2.518;2023-01-31T13:28:54;11.70;99.90
48860;DHT22;34679;51.436;-2.518;2023-01-31T13:31:30;11.70;99.90
48860;DHT22;34679;51.436;-2.518;2023-01-31T13:34:11;11.60;99.90
48860;DHT22;34679;51.436;-2.518;2023-01-31T13:39:22;11.40;99.90
48860;DHT22;34679;51.436;-2.518;2023-01-31T13:41:49;11.40;99.90
48860;DHT22;34679;51.436;-2.518;2023-01-31T13:44:15;11.40;99.90
48860;DHT22;34679;51.436;-2.518;2023-01-31T13:46:51;11.30;99.90
48860;DHT22;34679;51.436;-2.518;2023-01-31T13:49:46;11.30;99.90
48860;DHT22;34679;51.436;-2.518;2023-01-31T13:52:26;11.20;99.90
48860;DHT22;34679;51.436;-2.518;2023-01-31T13:55:07;11.20;99.90
48860;DHT22;34679;51.436;-2.518;2023-01-31T13:57:40;11.20;99.90
48860;DHT22;34679;51.436;-2.518;2023-01-31T14:00:47;11.20;99.90
48860;DHT22;34679;51.436;-2.518;2023-01-31T14:03:14;11.10;99.90
48860;DHT22;34679;51.436;-2.518;2023-01-31T14:13:44;11.20;99.90
48860;DHT22;34679;51.436;-2.518;2023-01-31T14:16:33;11.10;99.90
48860;DHT22;34679;51.436;-2.518;2023-01-31T14:18:59;11.10;99.90
48860;DHT22;34679;51.436;-2.518;2023-01-31T14:23:55;11.20;99.90
48860;DHT22;34679;51.436;-2.518;2023-01-31T14:28:57;11.20;99.90
48860;DHT22;34679;51.436;-2.518;2023-01-31T14:31:23;11.20;99.90
48860;DHT22;34679;51.436;-2.518;2023-01-31T14:33:51;11.10;99.90
48860;DHT22;34679;51.436;-2.518;2023-01-31T14:54:05;10.90;99.90
48860;DHT22;34679;51.436;-2.518;2023-01-31T14:56:57;10.90;99.90
48860;DHT22;34679;51.436;-2.518;2023-01-31T15:00:17;10.80;99.90
48860;DHT22;34679;51.436;-2.518;2023-01-31T15:05:06;10.80;99.90
48860;DHT22;34679;51.436;-2.518;2023-01-31T15:07:33;10.70;99.90
48860;DHT22;34679;51.436;-2.518;2023-01-31T15:09:59;10.70;99.90
48860;DHT22;34679;51.436;-2.518;2023-01-31T15:12:56;10.80;99.90
48860;DHT22;34679;51.436;-2.518;2023-01-31T15:15:46;10.70;99.90
48860;DHT22;34679;51.436;-2.518;2023-01-31T15:18:19;10.60;99.90
48860;DHT22;34679;51.436;-2.518;2023-01-31T15:20:51;10.60;99.90
48860;DHT22;34679;51.436;-2.518;2023-01-31T15:23:23;10.60;99.90
48860;DHT22;34679;51.436;-2.518;2023-01-31T15:25:50;10.50;99.90
48860;DHT22;34679;51.436;-2.518;2023-01-31T15:28:21;10.40;99.90
48860;DHT22;34679;51.436;-2.518;2023-01-31T15:30:50;10.40;99.90
48860;DHT22;34679;51.436;-2.518;2023-01-31T15:33:30;10.40;99.90
48860;DHT22;34679;51.436;-2.518;2023-01-31T15:36:41;10.30;99.90
48860;DHT22;34679;51.436;-2.518;2023-01-31T15:39:24;10.30;99.90
48860;DHT22;34679;51.436;-2.518;2023-01-31T15:41:51;10.30;99.90
48860;DHT22;34679;51.436;-2.518;2023-01-31T15:44:20;10.20;99.90
48860;DHT22;34679;51.436;-2.518;2023-01-31T15:46:48;10.20;99.90
48860;DHT22;34679;51.436;-2.518;2023-01-31T15:52:00;10.20;99.90
48860;DHT22;34679;51.436;-2.518;2023-01-31T15:54:26;10.10;99.90
48860;DHT22;34679;51.436;-2.518;2023-01-31T15:56:52;10.10;99.90
48860;DHT22;34679;51.436;-2.518;2023-01-31T15:59:17;10.00;99.90
48860;DHT22;34679;51.436;-2.518;2023-01-31T16:01:47;9.90;99.90
48860;DHT22;34679;51.436;-2.518;2023-01-31T16:04:14;9.90;99.90
48860;DHT22;34679;51.436;-2.518;2023-01-31T16:06:39;9.80;99.90
48860;DHT22;34679;51.436;-2.518;2023-01-31T16:09:06;9.70;99.90
48860;DHT22;34679;51.436;-2.518;2023-01-31T16:11:46;9.60;99.90
48860;DHT22;34679;51.436;-2.518;2023-01-31T16:14:12;9.50;99.90
48860;DHT22;34679;51.436;-2.518;2023-01-31T16:16:38;9.50;99.90
48860;DHT22;34679;51.436;-2.518;2023-01-31T16:19:04;9.40;99.90
48860;DHT22;34679;51.436;-2.518;2023-01-31T16:21:42;9.30;99.90
48860;DHT22;34679;51.436;-2.518;2023-01-31T16:24:21;9.20;99.90
48860;DHT22;34679;51.436;-2.518;2023-01-31T16:26:53;9.20;99.90
48860;DHT22;34679;51.436;-2.518;2023-01-31T16:29:21;9.10;99.90
48860;DHT22;34679;51.436;-2.518;2023-01-31T16:31:50;9.00;99.90
48860;DHT22;34679;51.436;-2.518;2023-01-31T16:34:29;9.00;99.90
48860;DHT22;34679;51.436;-2.518;2023-01-31T16:37:06;8.90;99.90
48860;DHT22;34679;51.436;-2.518;2023-01-31T16:39:49;8.90;99.90
48860;DHT22;34679;51.436;-2.518;2023-01-31T16:44:44;8.70;99.90
48860;DHT22;34679;51.436;-2.518;2023-01-31T16:47:30;8.70;99.90
48860;DHT22;34679;51.436;-2.518;2023-01-31T16:52:49;8.60;99.90
48860;DHT22;34679;51.436;-2.518;2023-01-31T16:55:16;8.60;99.90
48860;DHT22;34679;51.436;-2.518;2023-01-31T16:57:42;8.50;99.90
48860;DHT22;34679;51.436;-2.518;2023-01-31T17:02:50;8.50;99.90
48860;DHT22;34679;51.436;-2.518;2023-01-31T17:05:42;8.40;99.90
48860;DHT22;34679;51.436;-2.518;2023-01-31T17:08:19;8.30;99.90
48860;DHT22;34679;51.436;-2.518;2023-01-31T17:10:46;8.30;99.90
48860;DHT22;34679;51.436;-2.518;2023-01-31T17:13:21;8.20;99.90
48860;DHT22;34679;51.436;-2.518;2023-01-31T17:15:48;8.20;99.90
48860;DHT22;34679;51.436;-2.518;2023-01-31T17:18:14;8.10;99.90
48860;DHT22;34679;51.436;-2.518;2023-01-31T17:20:45;8.10;99.90
48860;DHT22;34679;51.436;-2.518;2023-01-31T17:23:13;8.10;99.90
48860;DHT22;34679;51.436;-2.518;2023-01-31T17:25:39;8.10;99.90
48860;DHT22;34679;51.436;-2.518;2023-01-31T17:28:07;8.00;99.90
48860;DHT22;34679;51.436;-2.518;2023-01-31T17:30:33;8.00;99.90
48860;DHT22;34679;51.436;-2.518;2023-01-31T17:32:59;8.00;99.90
48860;DHT22;34679;51.436;-2.518;2023-01-31T17:35:34;8.00;99.90
48860;DHT22;34679;51.436;-2.518;2023-01-31T17:38:00;7.90;99.90
48860;DHT22;34679;51.436;-2.518;2023-01-31T17:40:26;7.90;99.90
48860;DHT22;34679;51.436;-2.518;2023-01-31T17:43:03;7.90;99.90
48860;DHT22;34679;51.436;-2.518;2023-01-31T17:45:29;7.90;99.90
48860;DHT22;34679;51.436;-2.518;2023-01-31T17:47:56;7.80;99.90
48860;DHT22;34679;51.436;-2.518;2023-01-31T17:50:24;7.80;99.90
48860;DHT22;34679;51.436;-2.518;2023-01-31T17:52:51;7.70;99.90
48860;DHT22;34679;51.436;-2.518;2023-01-31T17:55:17;7.70;99.90
48860;DHT22;34679;51.436;-2.518;2023-01-31T17:57:44;7.60;99.90
48860;DHT22;34679;51.436;-2.518;2023-01-31T18:00:13;7.60;99.90
48860;DHT22;34679;51.436;-2.518;2023-01-31T18:02:39;7.50;99.90
48860;DHT22;34679;51.436;-2.518;2023-01-31T18:05:09;7.50;99.90
48860;DHT22;34679;51.436;-2.518;2023-01-31T18:07:36;7.50;99.90
48860;DHT22;34679;51.436;-2.518;2023-01-31T18:10:02;7.50;99.90
48860;DHT22;34679;51.436;-2.518;2023-01-31T18:12:28;7.40;99.90
48860;DHT22;34679;51.436;-2.518;2023-01-31T18:14:54;7.40;99.90
48860;DHT22;34679;51.436;-2.518;2023-01-31T18:17:20;7.40;99.90
48860;DHT22;34679;51.436;-2.518;2023-01-31T18:19:46;7.40;99.90
48860;DHT22;34679;51.436;-2.518;2023-01-31T18:22:11;7.40;99.90
48860;DHT22;34679;51.436;-2.518;2023-01-31T18:24:37;7.50;99.90
48860;DHT22;34679;51.436;-2.518;2023-01-31T18:27:03;7.40;99.90
48860;DHT22;34679;51.436;-2.518;2023-01-31T18:29:29;7.40;99.90
48860;DHT22;34679;51.436;-2.518;2023-01-31T18:31:55;7.40;99.90